Time;durP1;ratioP1;P1;durP2;ratioP2;P2;SDS_P1;SDS_P2;PMS_P1;PMS_P2;Temp;Humidity;BMP_temperature;BMP_pressure;BME280_temperature;BME280_humidity;BME280_pressure;Samples;Min_cycle;Max_cycle;Signal;HPM_P1;HPM_P2
2023/09/17 00:01:59;;;;;;;23.38;18.02;;;16.80;99.90;;;;;;6210737;23;20087;-68
2023/09/17 00:04:25;;;;;;;27.02;18.35;;;16.80;99.90;;;;;;6210946;23;20020;-68
2023/09/17 00:06:50;;;;;;;23.45;18.38;;;16.80;99.90;;;;;;6211170;23;20112;-68
2023/09/17 00:09:17;;;;;;;25.02;17.77;;;16.80;99.90;;;;;;6211211;23;20492;-68
2023/09/17 00:11:43;;;;;;;24.88;17.88;;;16.80;99.90;;;;;;6184230;23;20103;-68
2023/09/17 00:14:09;;;;;;;28.35;18.33;;;16.80;99.90;;;;;;6184107;23;20122;-68
2023/09/17 00:16:35;;;;;;;24.77;17.75;;;16.80;99.90;;;;;;6211106;23;20452;-68
2023/09/17 00:19:00;;;;;;;26.00;18.17;;;16.70;99.90;;;;;;6211296;23;20452;-69
2023/09/17 00:21:26;;;;;;;25.65;19.65;;;16.70;99.90;;;;;;6210545;23;20020;-68
2023/09/17 00:23:52;;;;;;;27.00;18.67;;;16.70;99.90;;;;;;6211188;23;20137;-68
2023/09/17 00:26:18;;;;;;;28.70;18.83;;;16.70;99.90;;;;;;6210863;23;20020;-68
2023/09/17 00:28:43;;;;;;;28.70;18.83;;;16.70;99.90;;;;;;6211292;23;20020;-68
2023/09/17 00:31:09;;;;;;;24.90;18.33;;;16.70;99.90;;;;;;6184384;23;20023;-68
2023/09/17 00:33:34;;;;;;;21.90;17.17;;;16.70;99.90;;;;;;6211532;23;20054;-68
2023/09/17 00:36:00;;;;;;;29.08;18.77;;;16.80;99.90;;;;;;6211309;23;20024;-68
2023/09/17 00:38:26;;;;;;;30.55;18.23;;;16.80;99.90;;;;;;6211539;23;20120;-68
2023/09/17 00:40:51;;;;;;;26.00;18.77;;;16.80;99.90;;;;;;6210799;23;20017;-68
2023/09/17 00:43:18;;;;;;;24.67;17.58;;;16.70;99.90;;;;;;6210738;23;20017;-69
2023/09/17 00:45:44;;;;;;;26.50;17.98;;;16.70;99.90;;;;;;6159040;23;20049;-68
2023/09/17 00:48:11;;;;;;;24.98;17.70;;;16.70;99.90;;;;;;6210684;23;20024;-69
2023/09/17 00:50:38;;;;;;;24.58;17.60;;;16.70;99.90;;;;;;6183566;23;20525;-68
2023/09/17 00:53:05;;;;;;;27.10;21.67;;;16.70;99.90;;;;;;6182379;23;20835;-68
2023/09/17 00:55:31;;;;;;;27.33;20.02;;;16.90;99.90;;;;;;6183887;23;20096;-68
2023/09/17 00:57:58;;;;;;;22.60;18.60;;;16.80;99.90;;;;;;6183392;23;20025;-68
2023/09/17 01:00:25;;;;;;;22.55;17.80;;;16.80;99.90;;;;;;6210593;23;20020;-68
2023/09/17 01:02:52;;;;;;;24.73;18.08;;;16.80;99.90;;;;;;6210872;23;20020;-68
2023/09/17 01:05:18;;;;;;;27.70;17.92;;;16.80;99.90;;;;;;6183843;23;20024;-68
2023/09/17 01:07:45;;;;;;;24.30;18.65;;;16.80;99.90;;;;;;6210418;23;20071;-68
2023/09/17 01:10:11;;;;;;;25.58;18.55;;;16.70;99.90;;;;;;6183868;23;20059;-68
2023/09/17 01:12:38;;;;;;;26.67;18.90;;;16.70;99.90;;;;;;6210840;23;20024;-67
2023/09/17 01:15:07;;;;;;;28.35;19.45;;;16.70;99.90;;;;;;6210875;23;20013;-68
2023/09/17 01:17:34;;;;;;;25.55;18.58;;;16.70;99.90;;;;;;6210806;23;20024;-68
2023/09/17 01:20:07;;;;;;;25.20;18.77;;;16.70;99.90;;;;;;6183857;23;20025;-68
2023/09/17 01:22:38;;;;;;;24.52;18.98;;;16.70;99.90;;;;;;6209422;23;20572;-68
2023/09/17 01:25:15;;;;;;;31.50;20.37;;;16.70;99.90;;;;;;6183695;23;20021;-68
2023/09/17 01:27:41;;;;;;;23.77;18.50;;;16.70;99.90;;;;;;6210526;23;20020;-69
2023/09/17 01:30:21;;;;;;;25.85;19.30;;;16.70;99.90;;;;;;6210515;23;20025;-68
2023/09/17 01:32:47;;;;;;;25.35;18.48;;;16.70;99.90;;;;;;6158869;23;20074;-68
2023/09/17 01:35:15;;;;;;;29.25;19.58;;;16.70;99.90;;;;;;6183994;23;20918;-69
2023/09/17 01:37:58;;;;;;;27.10;19.27;;;16.70;99.90;;;;;;6209187;23;20071;-68
2023/09/17 01:40:25;;;;;;;24.42;18.58;;;16.70;99.90;;;;;;6184050;23;20091;-69
2023/09/17 01:42:52;;;;;;;25.30;19.40;;;16.70;99.90;;;;;;6210864;23;20022;-69
2023/09/17 01:45:18;;;;;;;25.45;18.30;;;16.70;99.90;;;;;;6183748;23;20102;-69
2023/09/17 01:47:48;;;;;;;25.20;18.73;;;16.60;99.90;;;;;;6183200;23;20059;-69
2023/09/17 01:50:16;;;;;;;24.60;17.88;;;16.70;99.90;;;;;;6183933;23;20012;-69
2023/09/17 01:52:43;;;;;;;23.85;16.10;;;16.70;99.90;;;;;;6210754;23;20023;-69
2023/09/17 01:55:10;;;;;;;28.45;18.98;;;16.70;99.90;;;;;;6210536;23;20059;-69
2023/09/17 01:57:36;;;;;;;23.67;17.40;;;16.70;99.90;;;;;;6210275;23;20032;-69
2023/09/17 02:00:16;;;;;;;27.05;17.65;;;16.70;99.90;;;;;;6210112;23;20021;-69
2023/09/17 02:02:46;;;;;;;25.25;17.35;;;16.70;99.90;;;;;;6209779;23;20021;-69
2023/09/17 02:05:13;;;;;;;25.40;18.15;;;16.70;99.90;;;;;;6183364;23;20032;-69
2023/09/17 02:07:39;;;;;;;23.80;17.13;;;16.60;99.90;;;;;;6210425;23;20397;-69
2023/09/17 02:10:05;;;;;;;26.40;18.20;;;16.60;99.90;;;;;;6183309;23;20021;-69
2023/09/17 02:12:31;;;;;;;21.08;16.77;;;16.70;99.90;;;;;;6210419;23;20017;-68
2023/09/17 02:14:57;;;;;;;23.20;16.35;;;16.60;99.90;;;;;;6210306;23;20066;-69
2023/09/17 02:17:23;;;;;;;25.55;16.92;;;16.60;99.90;;;;;;6209723;23;20024;-69
2023/09/17 02:19:48;;;;;;;24.30;16.52;;;16.70;99.90;;;;;;6211539;23;20031;-69
2023/09/17 02:22:14;;;;;;;21.70;16.25;;;16.60;99.90;;;;;;6212141;23;20025;-68
2023/09/17 02:24:39;;;;;;;23.23;16.98;;;16.60;99.90;;;;;;6212316;23;20100;-69
2023/09/17 02:27:05;;;;;;;19.73;15.30;;;16.60;99.90;;;;;;6185422;23;20032;-69
2023/09/17 02:29:31;;;;;;;23.85;16.42;;;16.60;99.90;;;;;;6211930;23;20024;-69
2023/09/17 02:31:57;;;;;;;21.90;15.80;;;16.60;99.90;;;;;;6212011;23;20027;-69
2023/09/17 02:34:22;;;;;;;24.30;15.95;;;16.70;99.90;;;;;;6212452;23;20024;-68
2023/09/17 02:36:48;;;;;;;20.00;15.65;;;16.70;99.90;;;;;;6185350;23;20531;-69
2023/09/17 02:39:14;;;;;;;22.25;15.80;;;16.70;99.90;;;;;;6212382;23;20428;-69
2023/09/17 02:41:39;;;;;;;24.02;15.93;;;16.70;99.90;;;;;;6212356;23;20102;-69
2023/09/17 02:44:06;;;;;;;30.02;16.67;;;16.70;99.90;;;;;;6212139;23;20017;-69
2023/09/17 02:46:33;;;;;;;21.92;15.23;;;16.60;99.90;;;;;;6211949;23;20340;-69
2023/09/17 02:49:00;;;;;;;23.77;16.63;;;16.60;99.90;;;;;;6212081;23;20020;-69
2023/09/17 02:51:27;;;;;;;24.88;16.58;;;16.60;99.90;;;;;;6212107;23;20013;-69
2023/09/17 02:53:52;;;;;;;30.37;20.47;;;16.60;99.90;;;;;;6210658;23;20364;-69
2023/09/17 02:56:18;;;;;;;33.37;22.00;;;16.70;99.90;;;;;;6210079;23;20434;-69
2023/09/17 02:58:46;;;;;;;29.33;21.35;;;16.80;99.90;;;;;;6183757;23;20877;-69
2023/09/17 03:01:17;;;;;;;28.97;21.23;;;16.90;99.90;;;;;;6183361;23;20399;-69
2023/09/17 03:03:44;;;;;;;27.77;21.30;;;16.90;99.90;;;;;;6183720;23;20408;-69
2023/09/17 03:06:11;;;;;;;30.80;22.80;;;17.00;99.90;;;;;;6210746;23;20363;-69
2023/09/17 03:08:43;;;;;;;24.55;17.45;;;17.00;99.90;;;;;;6185035;23;20345;-69
2023/09/17 03:11:12;;;;;;;24.88;17.95;;;16.80;99.90;;;;;;6211679;23;20468;-69
2023/09/17 03:13:39;;;;;;;23.98;18.27;;;16.70;99.90;;;;;;6211902;23;20017;-69
2023/09/17 03:16:05;;;;;;;24.98;18.25;;;16.70;99.90;;;;;;6211911;23;20083;-69
2023/09/17 03:18:31;;;;;;;25.80;17.80;;;16.70;99.90;;;;;;6159954;23;20522;-69
2023/09/17 03:20:56;;;;;;;25.92;17.52;;;16.60;99.90;;;;;;6184913;23;20025;-69
2023/09/17 03:23:22;;;;;;;28.05;17.55;;;16.60;99.90;;;;;;6212005;23;20028;-68
2023/09/17 03:25:48;;;;;;;25.88;18.50;;;16.60;99.90;;;;;;6184907;23;20031;-69
2023/09/17 03:28:13;;;;;;;27.85;19.85;;;16.60;99.90;;;;;;6211376;23;20453;-69
2023/09/17 03:30:39;;;;;;;25.42;18.83;;;16.60;99.90;;;;;;6211969;23;20017;-68
2023/09/17 03:33:05;;;;;;;26.58;18.75;;;16.60;99.90;;;;;;6184920;23;20104;-69
2023/09/17 03:35:32;;;;;;;30.77;19.45;;;16.60;99.90;;;;;;6212068;23;20021;-69
2023/09/17 03:37:58;;;;;;;27.10;19.50;;;16.60;99.90;;;;;;6211763;23;20399;-69
2023/09/17 03:40:24;;;;;;;27.92;19.38;;;16.60;99.90;;;;;;6211617;23;20016;-69
2023/09/17 03:42:50;;;;;;;30.17;20.17;;;16.60;99.90;;;;;;6211470;23;20028;-69
2023/09/17 03:45:15;;;;;;;32.13;21.38;;;16.60;99.90;;;;;;6211408;23;20056;-69
2023/09/17 03:47:43;;;;;;;28.70;20.20;;;16.50;99.90;;;;;;6211391;23;20025;-69
2023/09/17 03:50:13;;;;;;;28.90;20.42;;;16.60;99.90;;;;;;6211280;23;20043;-69
2023/09/17 03:52:42;;;;;;;30.90;20.58;;;16.60;99.90;;;;;;6211231;23;20021;-69
2023/09/17 03:55:08;;;;;;;31.83;21.02;;;16.50;99.90;;;;;;6185393;23;20020;-69
2023/09/17 03:57:36;;;;;;;29.65;21.17;;;16.50;99.90;;;;;;6210973;23;20032;-69
2023/09/17 04:00:10;;;;;;;38.30;22.40;;;16.50;99.90;;;;;;6211240;23;20109;-69
2023/09/17 04:02:37;;;;;;;29.92;21.83;;;16.50;99.90;;;;;;6211073;23;20024;-69
2023/09/17 04:05:08;;;;;;;35.45;22.35;;;16.50;99.90;;;;;;6211290;23;20326;-68
2023/09/17 04:07:34;;;;;;;30.33;21.60;;;16.50;99.90;;;;;;6184246;23;20047;-69
2023/09/17 04:10:02;;;;;;;32.65;21.35;;;16.50;99.90;;;;;;6211356;23;20083;-69
2023/09/17 04:12:28;;;;;;;33.47;22.23;;;16.50;99.90;;;;;;6211114;23;20021;-69
2023/09/17 04:14:53;;;;;;;31.55;21.40;;;16.50;99.90;;;;;;6210898;23;20092;-69
2023/09/17 04:17:19;;;;;;;29.70;21.88;;;16.50;99.90;;;;;;6211270;23;20008;-69
2023/09/17 04:19:45;;;;;;;29.95;21.80;;;16.40;99.90;;;;;;6211179;23;20020;-69
2023/09/17 04:22:11;;;;;;;31.20;22.23;;;16.40;99.90;;;;;;6210960;23;20021;-69
2023/09/17 04:24:38;;;;;;;31.67;22.13;;;16.40;99.90;;;;;;6211145;23;20047;-69
2023/09/17 04:27:04;;;;;;;33.92;23.30;;;16.40;99.90;;;;;;6159240;23;20044;-69
2023/09/17 04:29:30;;;;;;;37.15;22.77;;;16.40;99.90;;;;;;6211205;23;20052;-69
2023/09/17 04:31:55;;;;;;;35.95;23.73;;;16.40;99.90;;;;;;6211422;23;20013;-68
2023/09/17 04:34:22;;;;;;;38.47;24.00;;;16.40;99.90;;;;;;6211893;23;20059;-69
2023/09/17 04:36:48;;;;;;;33.80;22.83;;;16.30;99.90;;;;;;6211459;23;20016;-69
2023/09/17 04:39:15;;;;;;;33.05;23.23;;;16.30;99.90;;;;;;6211661;23;20032;-69
2023/09/17 04:41:42;;;;;;;33.80;23.10;;;16.30;99.90;;;;;;6210616;23;20024;-69
2023/09/17 04:44:10;;;;;;;38.45;23.08;;;16.40;99.90;;;;;;6211170;23;20036;-69
2023/09/17 04:46:39;;;;;;;36.92;23.42;;;16.30;99.90;;;;;;6211125;23;20016;-68
2023/09/17 04:49:05;;;;;;;37.28;23.65;;;16.30;99.90;;;;;;6184080;23;20413;-69
2023/09/17 04:51:31;;;;;;;37.60;22.77;;;16.30;99.90;;;;;;6211052;23;20020;-69
2023/09/17 04:53:57;;;;;;;43.60;29.98;;;16.30;99.90;;;;;;6209441;23;20431;-69
2023/09/17 04:56:23;;;;;;;33.95;24.38;;;16.40;99.90;;;;;;6210318;23;20419;-68
2023/09/17 04:58:48;;;;;;;38.47;24.23;;;16.40;99.90;;;;;;6210985;23;20044;-69
2023/09/17 05:01:14;;;;;;;33.03;23.67;;;16.40;99.90;;;;;;6210587;23;20078;-69
2023/09/17 05:03:41;;;;;;;33.22;23.08;;;16.40;99.90;;;;;;6210815;23;20087;-68
2023/09/17 05:06:07;;;;;;;37.03;22.33;;;16.40;99.90;;;;;;6210424;23;20028;-69
2023/09/17 05:08:33;;;;;;;39.28;23.85;;;16.30;99.90;;;;;;6210974;23;20020;-69
2023/09/17 05:10:59;;;;;;;36.33;23.88;;;16.30;99.90;;;;;;6210509;23;20470;-68
2023/09/17 05:13:24;;;;;;;40.70;26.10;;;16.30;99.90;;;;;;6210817;23;20035;-68
2023/09/17 05:15:50;;;;;;;35.95;26.10;;;16.30;99.90;;;;;;6183740;23;20102;-68
2023/09/17 05:18:16;;;;;;;34.78;25.73;;;16.30;99.90;;;;;;6183673;23;20020;-69
2023/09/17 05:20:44;;;;;;;42.03;26.52;;;16.40;99.90;;;;;;6210788;23;20021;-68
2023/09/17 05:23:12;;;;;;;40.40;26.55;;;16.30;99.90;;;;;;6210333;23;20027;-68
2023/09/17 05:25:38;;;;;;;40.65;26.73;;;16.40;99.90;;;;;;6210192;23;20456;-68
2023/09/17 05:28:06;;;;;;;36.90;26.67;;;16.30;99.90;;;;;;6210529;23;20052;-68
2023/09/17 05:30:37;;;;;;;39.03;27.67;;;16.30;99.90;;;;;;6183719;23;20352;-68
2023/09/17 05:33:06;;;;;;;43.53;28.88;;;16.30;99.90;;;;;;6183692;23;20056;-68
2023/09/17 05:35:34;;;;;;;43.42;26.65;;;16.30;99.90;;;;;;6183682;23;20052;-68
2023/09/17 05:38:00;;;;;;;38.10;25.85;;;16.30;99.90;;;;;;6210380;23;20024;-68
2023/09/17 05:40:26;;;;;;;42.25;28.25;;;16.30;99.90;;;;;;6210187;23;20028;-68
2023/09/17 05:42:52;;;;;;;40.53;27.80;;;16.30;99.90;;;;;;6210377;23;20131;-68
2023/09/17 05:45:18;;;;;;;39.80;27.88;;;16.30;99.90;;;;;;6210504;23;20043;-67
2023/09/17 05:47:44;;;;;;;40.58;28.05;;;16.30;99.90;;;;;;6210705;23;20017;-68
2023/09/17 05:50:10;;;;;;;46.53;30.35;;;16.30;99.90;;;;;;6210776;23;20046;-68
2023/09/17 05:52:37;;;;;;;40.85;28.88;;;16.30;99.90;;;;;;6210897;23;20134;-68
2023/09/17 05:55:04;;;;;;;45.13;28.35;;;16.30;99.90;;;;;;6212709;23;20023;-68
2023/09/17 05:57:32;;;;;;;40.15;28.20;;;16.40;99.90;;;;;;6212757;23;20021;-67
2023/09/17 05:59:59;;;;;;;41.85;27.40;;;16.30;99.90;;;;;;6212618;23;20028;-68
2023/09/17 06:02:25;;;;;;;44.60;28.95;;;16.30;99.90;;;;;;6212456;23;20024;-68
2023/09/17 06:04:53;;;;;;;39.63;27.27;;;16.40;99.90;;;;;;6212631;23;20020;-68
2023/09/17 06:07:20;;;;;;;41.03;27.95;;;16.40;99.90;;;;;;6212152;23;20024;-68
2023/09/17 06:09:46;;;;;;;38.38;27.42;;;16.40;99.90;;;;;;6212189;23;20128;-68
2023/09/17 06:12:12;;;;;;;41.78;27.83;;;16.40;99.90;;;;;;6212095;23;20030;-68
2023/09/17 06:14:39;;;;;;;41.63;27.80;;;16.40;99.90;;;;;;6212208;23;20089;-68
2023/09/17 06:17:05;;;;;;;38.85;28.13;;;16.40;99.90;;;;;;6212394;23;20436;-68
2023/09/17 06:19:32;;;;;;;49.10;36.58;;;16.40;99.90;;;;;;6210824;23;20429;-68
2023/09/17 06:21:59;;;;;;;49.65;36.25;;;16.50;99.90;;;;;;6183718;23;20383;-68
2023/09/17 06:24:25;;;;;;;49.00;36.13;;;16.60;99.90;;;;;;6183530;23;20457;-68
2023/09/17 06:26:50;;;;;;;48.57;36.00;;;16.70;99.90;;;;;;6183676;23;20375;-68
2023/09/17 06:29:16;;;;;;;45.72;35.10;;;16.70;99.90;;;;;;6183507;23;20372;-68
2023/09/17 06:31:42;;;;;;;44.03;33.65;;;16.80;99.90;;;;;;6210307;23;20383;-68
2023/09/17 06:34:09;;;;;;;46.30;34.33;;;16.80;99.90;;;;;;6210266;23;20360;-68
2023/09/17 06:36:36;;;;;;;45.47;33.75;;;16.90;99.90;;;;;;6210373;23;21018;-68
2023/09/17 06:39:03;;;;;;;45.13;27.60;;;16.90;99.90;;;;;;6212840;23;20369;-68
2023/09/17 06:41:28;;;;;;;36.15;26.48;;;16.70;99.90;;;;;;6212205;23;20027;-68
2023/09/17 06:43:54;;;;;;;35.78;25.23;;;16.70;99.90;;;;;;6212158;23;20520;-68
2023/09/17 06:46:23;;;;;;;33.45;25.42;;;16.70;99.90;;;;;;6185027;23;20384;-68
2023/09/17 06:48:52;;;;;;;39.72;27.98;;;16.60;99.90;;;;;;6212001;23;20063;-68
2023/09/17 06:51:19;;;;;;;40.83;27.98;;;16.60;99.90;;;;;;6212845;23;20028;-68
2023/09/17 06:53:45;;;;;;;41.35;27.63;;;16.60;99.90;;;;;;6185219;23;20032;-68
2023/09/17 06:56:12;;;;;;;36.83;27.50;;;16.60;99.90;;;;;;6211366;23;20400;-68
2023/09/17 06:58:38;;;;;;;40.10;28.20;;;16.60;99.90;;;;;;6211822;23;20403;-68
2023/09/17 07:01:05;;;;;;;37.45;26.23;;;16.60;99.90;;;;;;6185140;23;20028;-68
2023/09/17 07:03:32;;;;;;;41.72;27.48;;;16.60;99.90;;;;;;6211824;23;20020;-71
2023/09/17 07:05:58;;;;;;;41.28;27.33;;;16.60;99.90;;;;;;6211594;23;20057;-68
2023/09/17 07:08:24;;;;;;;41.15;28.02;;;16.60;99.90;;;;;;6212431;23;20336;-67
2023/09/17 07:10:50;;;;;;;41.30;27.85;;;16.60;99.90;;;;;;6212028;23;20016;-67
2023/09/17 07:13:16;;;;;;;42.80;28.45;;;16.60;99.90;;;;;;6184886;23;20080;-67
2023/09/17 07:15:44;;;;;;;44.90;28.98;;;16.70;99.90;;;;;;6212013;23;20027;-67
2023/09/17 07:18:10;;;;;;;41.30;28.77;;;16.70;99.90;;;;;;6211742;23;20017;-67
2023/09/17 07:20:37;;;;;;;43.35;27.95;;;16.70;99.90;;;;;;6211400;23;20017;-67
2023/09/17 07:23:03;;;;;;;40.50;28.33;;;16.70;99.90;;;;;;6184594;23;20025;-68
2023/09/17 07:25:29;;;;;;;43.47;29.20;;;16.80;99.90;;;;;;6184428;23;20028;-68
2023/09/17 07:27:54;;;;;;;45.08;30.23;;;16.80;99.90;;;;;;6211643;23;20013;-67
2023/09/17 07:30:20;;;;;;;46.50;31.02;;;16.80;99.90;;;;;;6211611;23;20523;-68
2023/09/17 07:32:46;;;;;;;43.15;30.40;;;16.80;99.90;;;;;;6211327;23;20016;-67
2023/09/17 07:35:11;;;;;;;46.55;32.38;;;16.90;99.90;;;;;;6211662;23;20066;-67
2023/09/17 07:37:37;;;;;;;47.08;31.45;;;16.80;99.90;;;;;;6212041;23;20091;-68
2023/09/17 07:40:05;;;;;;;47.10;30.90;;;16.80;99.90;;;;;;6211867;23;20040;-68
2023/09/17 07:42:31;;;;;;;45.15;29.85;;;16.80;99.90;;;;;;6211720;23;20020;-68
2023/09/17 07:44:57;;;;;;;45.28;30.40;;;16.80;99.90;;;;;;6211221;23;20045;-67
2023/09/17 07:47:23;;;;;;;40.35;29.30;;;16.80;99.90;;;;;;6184423;23;20083;-67
2023/09/17 07:49:49;;;;;;;41.63;30.30;;;16.80;99.90;;;;;;6211330;23;20017;-68
2023/09/17 07:52:15;;;;;;;45.65;29.83;;;16.90;99.90;;;;;;6211512;23;20092;-67
2023/09/17 07:54:41;;;;;;;44.17;30.77;;;16.80;99.90;;;;;;6184660;23;20051;-68
2023/09/17 07:57:12;;;;;;;45.25;30.63;;;16.90;99.90;;;;;;6210888;23;20028;-67
2023/09/17 07:59:38;;;;;;;44.45;31.60;;;16.90;99.90;;;;;;6211198;23;20064;-67
2023/09/17 08:02:04;;;;;;;45.75;30.25;;;16.90;99.90;;;;;;6210961;23;20268;-68
2023/09/17 08:04:30;;;;;;;44.95;31.33;;;16.90;99.90;;;;;;6211045;23;20104;-68
2023/09/17 08:06:57;;;;;;;44.67;31.15;;;16.90;99.90;;;;;;6211260;23;20016;-68
2023/09/17 08:09:23;;;;;;;45.50;32.38;;;17.00;99.90;;;;;;6211004;23;20012;-68
2023/09/17 08:11:49;;;;;;;43.58;30.52;;;17.00;99.90;;;;;;6211098;23;20025;-68
2023/09/17 08:14:15;;;;;;;45.78;31.85;;;17.00;99.90;;;;;;6184231;23;20581;-68
2023/09/17 08:16:41;;;;;;;47.45;32.05;;;17.10;99.90;;;;;;6210722;23;20219;-68
2023/09/17 08:19:07;;;;;;;49.50;32.22;;;17.10;99.90;;;;;;6210904;23;20031;-68
2023/09/17 08:21:33;;;;;;;46.90;32.08;;;17.10;99.90;;;;;;6184737;23;20020;-68
2023/09/17 08:23:59;;;;;;;47.78;31.70;;;17.20;99.90;;;;;;6211182;23;20396;-68
2023/09/17 08:26:29;;;;;;;46.38;31.33;;;17.20;99.90;;;;;;6184436;23;20487;-68
2023/09/17 08:28:56;;;;;;;45.15;31.15;;;17.20;99.90;;;;;;6211154;23;20028;-68
2023/09/17 08:31:24;;;;;;;47.28;31.50;;;17.20;99.90;;;;;;6184215;23;20025;-68
2023/09/17 08:33:51;;;;;;;48.97;32.80;;;17.20;99.90;;;;;;6210968;23;20032;-68
2023/09/17 08:36:21;;;;;;;43.17;32.78;;;17.30;99.90;;;;;;6210558;23;20441;-68
2023/09/17 08:38:50;;;;;;;45.65;32.60;;;17.30;99.90;;;;;;6210911;23;20021;-68
2023/09/17 08:41:19;;;;;;;46.70;32.45;;;17.30;99.90;;;;;;6210420;23;20472;-67
2023/09/17 08:43:49;;;;;;;45.60;31.88;;;17.40;99.90;;;;;;6210759;23;20017;-68
2023/09/17 08:46:15;;;;;;;49.17;32.58;;;17.40;99.90;;;;;;6210468;23;20026;-68
2023/09/17 08:48:41;;;;;;;46.55;31.98;;;17.50;99.90;;;;;;6210628;23;20091;-68
2023/09/17 08:51:11;;;;;;;46.95;31.42;;;17.50;99.90;;;;;;6210387;23;20027;-68
2023/09/17 08:53:44;;;;;;;48.10;31.80;;;17.60;99.90;;;;;;6210494;23;20074;-68
2023/09/17 08:56:13;;;;;;;43.30;31.60;;;17.60;99.90;;;;;;6210547;23;20075;-68
2023/09/17 08:58:48;;;;;;;45.28;30.55;;;17.70;99.90;;;;;;6210761;23;20078;-68
2023/09/17 09:01:17;;;;;;;45.47;30.35;;;17.70;99.90;;;;;;6210348;23;20360;-68
2023/09/17 09:03:44;;;;;;;48.60;31.42;;;17.70;99.90;;;;;;6210152;23;20107;-68
2023/09/17 09:06:11;;;;;;;47.22;28.77;;;17.80;99.90;;;;;;6210692;23;20017;-68
2023/09/17 09:08:38;;;;;;;45.80;30.35;;;17.80;99.90;;;;;;6210816;23;20024;-68
2023/09/17 09:11:05;;;;;;;37.35;28.58;;;17.80;99.90;;;;;;6210774;23;20087;-67
2023/09/17 09:13:32;;;;;;;47.10;31.27;;;17.90;99.90;;;;;;6210686;23;20017;-68
2023/09/17 09:15:58;;;;;;;47.65;30.65;;;17.90;99.90;;;;;;6210450;23;20059;-68
2023/09/17 09:18:24;;;;;;;46.17;30.23;;;17.90;99.90;;;;;;6210739;23;20016;-68
2023/09/17 09:20:50;;;;;;;43.13;30.05;;;17.90;99.90;;;;;;6183445;23;20066;-68
2023/09/17 09:23:16;;;;;;;44.20;29.17;;;17.90;99.90;;;;;;6209951;23;20644;-68
2023/09/17 09:25:42;;;;;;;43.80;30.63;;;18.00;99.90;;;;;;6183120;23;20062;-68
2023/09/17 09:28:08;;;;;;;38.90;29.17;;;18.00;99.90;;;;;;6183470;23;20048;-68
2023/09/17 09:30:36;;;;;;;44.35;29.30;;;17.90;99.90;;;;;;6183386;23;20090;-68
2023/09/17 09:33:02;;;;;;;41.05;27.60;;;17.90;99.90;;;;;;6183459;23;20020;-68
2023/09/17 09:35:29;;;;;;;41.00;29.58;;;17.90;99.90;;;;;;6210204;23;20018;-68
2023/09/17 09:37:54;;;;;;;43.50;29.45;;;17.90;99.90;;;;;;6210625;23;20079;-68
2023/09/17 09:40:21;;;;;;;43.42;30.55;;;17.90;99.90;;;;;;6210589;23;20016;-67
2023/09/17 09:42:48;;;;;;;44.53;30.67;;;17.90;99.90;;;;;;6210646;23;20391;-68
2023/09/17 09:45:15;;;;;;;44.40;30.25;;;17.90;99.90;;;;;;6210319;23;20021;-68
2023/09/17 09:47:47;;;;;;;45.65;30.88;;;17.90;99.90;;;;;;6184172;23;20439;-67
2023/09/17 09:50:27;;;;;;;43.88;28.80;;;17.90;99.90;;;;;;6210894;23;20025;-67
2023/09/17 09:52:54;;;;;;;45.90;30.70;;;17.90;99.90;;;;;;6210973;23;20025;-71
2023/09/17 09:55:27;;;;;;;48.67;30.90;;;17.90;99.90;;;;;;6210659;23;20012;-72
2023/09/17 09:57:53;;;;;;;44.47;30.55;;;17.90;99.90;;;;;;6210297;23;20012;-71
2023/09/17 10:00:26;;;;;;;43.65;30.60;;;17.90;99.90;;;;;;6209855;23;20067;-71
2023/09/17 10:02:53;;;;;;;43.05;30.75;;;17.90;99.90;;;;;;6159407;23;20098;-68
2023/09/17 10:05:32;;;;;;;41.83;30.23;;;17.90;99.90;;;;;;6183413;23;20075;-67
2023/09/17 10:07:58;;;;;;;46.75;31.23;;;18.00;99.90;;;;;;6210389;23;20048;-67
2023/09/17 10:10:24;;;;;;;47.40;29.90;;;18.00;99.90;;;;;;6210407;23;20277;-67
2023/09/17 10:12:53;;;;;;;45.00;30.75;;;18.10;99.90;;;;;;6210475;23;20341;-67
2023/09/17 10:15:19;;;;;;;41.05;29.35;;;18.10;99.90;;;;;;6210055;23;20028;-67
2023/09/17 10:17:47;;;;;;;40.10;28.52;;;18.20;99.90;;;;;;6183152;23;20017;-67
2023/09/17 10:20:14;;;;;;;41.50;27.17;;;18.30;99.90;;;;;;6210105;23;20137;-67
2023/09/17 10:22:42;;;;;;;40.63;28.48;;;18.30;99.90;;;;;;6210011;23;20020;-68
2023/09/17 10:25:09;;;;;;;43.45;28.25;;;18.30;99.90;;;;;;6209918;23;20467;-67
2023/09/17 10:27:36;;;;;;;37.70;27.48;;;18.30;99.90;;;;;;6210408;23;20384;-68
2023/09/17 10:30:04;;;;;;;44.72;28.70;;;18.40;99.90;;;;;;6209993;23;20080;-68
2023/09/17 10:32:34;;;;;;;39.92;28.08;;;18.40;99.90;;;;;;6210080;23;20029;-68
2023/09/17 10:35:02;;;;;;;38.15;25.67;;;18.40;99.90;;;;;;6210352;23;20016;-68
2023/09/17 10:37:31;;;;;;;37.60;26.70;;;18.40;99.90;;;;;;6210095;23;20047;-68
2023/09/17 10:39:57;;;;;;;38.58;26.52;;;18.40;99.90;;;;;;6210849;23;20048;-68
2023/09/17 10:42:25;;;;;;;41.53;27.83;;;18.30;99.90;;;;;;6212156;23;20051;-68
2023/09/17 10:44:55;;;;;;;38.95;28.23;;;18.40;99.90;;;;;;6211812;23;20062;-67
2023/09/17 10:47:23;;;;;;;42.72;27.98;;;18.30;99.90;;;;;;6211881;23;20020;-68
2023/09/17 10:49:49;;;;;;;37.63;26.90;;;18.30;99.90;;;;;;6212032;23;20467;-67
2023/09/17 10:52:16;;;;;;;41.42;27.70;;;18.30;99.90;;;;;;6211746;23;20031;-67
2023/09/17 10:54:41;;;;;;;39.00;28.58;;;18.40;99.90;;;;;;6211794;23;20017;-67
2023/09/17 10:57:18;;;;;;;41.33;29.48;;;18.50;99.90;;;;;;6211350;23;20036;-67
2023/09/17 10:59:44;;;;;;;42.10;29.75;;;18.60;99.90;;;;;;6211193;23;20025;-68
2023/09/17 11:02:12;;;;;;;46.05;28.60;;;18.60;99.90;;;;;;6211873;23;20023;-67
2023/09/17 11:04:39;;;;;;;43.70;29.92;;;18.70;99.90;;;;;;6211881;23;20028;-67
2023/09/17 11:07:07;;;;;;;40.75;29.10;;;18.80;99.90;;;;;;6212006;23;20024;-68
2023/09/17 11:09:33;;;;;;;41.30;27.98;;;18.90;99.90;;;;;;6211698;23;20567;-67
2023/09/17 11:11:59;;;;;;;39.40;26.98;;;18.90;99.90;;;;;;6212183;23;20314;-67
2023/09/17 11:14:25;;;;;;;43.67;29.65;;;18.90;99.90;;;;;;6184951;23;20026;-68
2023/09/17 11:16:50;;;;;;;40.33;27.02;;;18.90;99.90;;;;;;6212415;23;20073;-68
2023/09/17 11:19:19;;;;;;;41.13;28.17;;;18.90;99.90;;;;;;6185552;23;20060;-68
2023/09/17 11:21:49;;;;;;;41.38;28.77;;;19.00;99.90;;;;;;6212783;23;20380;-68
2023/09/17 11:24:17;;;;;;;41.53;28.50;;;19.00;99.90;;;;;;6212160;23;20020;-68
2023/09/17 11:26:47;;;;;;;42.75;27.40;;;19.10;99.90;;;;;;6184270;23;20029;-68
2023/09/17 11:29:14;;;;;;;41.55;28.15;;;19.10;99.90;;;;;;6211977;23;20021;-68
2023/09/17 11:31:51;;;;;;;42.13;27.67;;;19.20;99.90;;;;;;6212097;23;20074;-68
2023/09/17 11:34:17;;;;;;;42.92;27.48;;;19.20;99.90;;;;;;6211314;23;20060;-68
2023/09/17 11:36:46;;;;;;;41.25;28.42;;;19.30;99.90;;;;;;6184658;23;20028;-68
2023/09/17 11:39:15;;;;;;;42.38;28.55;;;19.30;99.90;;;;;;6211807;23;20644;-68
2023/09/17 11:41:46;;;;;;;40.70;28.27;;;19.30;99.90;;;;;;6184852;23;20463;-68
2023/09/17 11:44:13;;;;;;;41.22;27.88;;;19.30;99.90;;;;;;6211563;23;20507;-68
2023/09/17 11:46:39;;;;;;;41.30;27.42;;;19.40;99.90;;;;;;6184890;23;20087;-68
2023/09/17 11:49:08;;;;;;;42.45;29.25;;;19.40;99.90;;;;;;6184813;23;20055;-68
2023/09/17 11:51:34;;;;;;;40.30;27.67;;;19.40;99.90;;;;;;6184529;23;20487;-68
2023/09/17 11:54:15;;;;;;;38.88;27.15;;;19.40;99.90;;;;;;6184506;23;20025;-68
2023/09/17 11:56:53;;;;;;;39.88;28.38;;;19.50;99.90;;;;;;6183816;23;20028;-68
2023/09/17 11:59:20;;;;;;;42.17;28.35;;;19.50;99.90;;;;;;6184379;23;20020;-68
2023/09/17 12:01:52;;;;;;;41.08;27.90;;;19.50;99.90;;;;;;6210981;23;20028;-68
2023/09/17 12:04:19;;;;;;;39.25;26.00;;;19.50;99.90;;;;;;6211472;23;20063;-68
2023/09/17 12:06:49;;;;;;;40.03;27.75;;;19.60;99.90;;;;;;6211125;23;20017;-68
2023/09/17 12:09:21;;;;;;;42.90;27.20;;;19.70;99.90;;;;;;6210956;23;20036;-68
2023/09/17 12:11:47;;;;;;;39.20;28.70;;;19.70;99.90;;;;;;6159029;23;20020;-68
2023/09/17 12:14:14;;;;;;;44.35;28.20;;;19.80;99.90;;;;;;6210839;23;20444;-68
2023/09/17 12:16:40;;;;;;;40.45;28.98;;;19.90;99.90;;;;;;6210939;23;20432;-68
2023/09/17 12:19:07;;;;;;;43.70;27.80;;;20.10;99.90;;;;;;6211185;23;20016;-68
2023/09/17 12:21:44;;;;;;;39.33;26.48;;;20.10;99.90;;;;;;6184262;23;20016;-68
2023/09/17 12:24:26;;;;;;;37.10;27.30;;;20.20;99.90;;;;;;6211063;23;20021;-68
2023/09/17 12:27:40;;;;;;;42.20;29.57;;;20.20;99.90;;;;;;6211385;23;20115;-68
2023/09/17 12:29:47;;;;;;;45.25;30.48;;;20.30;99.90;;;;;;6172407;23;20035;-68